sensor_id;sensor_type;location;lat;lon;timestamp;P1;durP1;ratioP1;P2;durP2;ratioP2
34019;SDS011;20895;51.034;3.742;2023-03-17T00:01:53;2.90;;;2.00;;
34019;SDS011;20895;51.034;3.742;2023-03-17T00:04:20;3.95;;;1.65;;
34019;SDS011;20895;51.034;3.742;2023-03-17T00:06:46;2.35;;;1.77;;
34019;SDS011;20895;51.034;3.742;2023-03-17T00:09:15;2.42;;;1.70;;
34019;SDS011;20895;51.034;3.742;2023-03-17T00:11:41;2.45;;;1.92;;
34019;SDS011;20895;51.034;3.742;2023-03-17T00:14:06;3.38;;;2.00;;
34019;SDS011;20895;51.034;3.742;2023-03-17T00:16:36;3.15;;;1.67;;
34019;SDS011;20895;51.034;3.742;2023-03-17T00:19:02;2.92;;;2.13;;
34019;SDS011;20895;51.034;3.742;2023-03-17T00:21:29;4.22;;;2.03;;
34019;SDS011;20895;51.034;3.742;2023-03-17T00:23:54;4.43;;;2.15;;
34019;SDS011;20895;51.034;3.742;2023-03-17T00:26:20;2.63;;;1.60;;
34019;SDS011;20895;51.034;3.742;2023-03-17T00:28:45;4.57;;;2.47;;
34019;SDS011;20895;51.034;3.742;2023-03-17T00:31:15;3.17;;;1.88;;
34019;SDS011;20895;51.034;3.742;2023-03-17T00:33:42;3.45;;;1.70;;
34019;SDS011;20895;51.034;3.742;2023-03-17T00:36:09;3.80;;;2.08;;
34019;SDS011;20895;51.034;3.742;2023-03-17T00:38:37;3.17;;;1.60;;
34019;SDS011;20895;51.034;3.742;2023-03-17T00:41:03;2.08;;;1.60;;
34019;SDS011;20895;51.034;3.742;2023-03-17T00:43:28;2.80;;;1.88;;
34019;SDS011;20895;51.034;3.742;2023-03-17T00:45:54;3.78;;;1.90;;
34019;SDS011;20895;51.034;3.742;2023-03-17T00:48:20;3.60;;;2.35;;
34019;SDS011;20895;51.034;3.742;2023-03-17T00:50:46;4.47;;;1.58;;
34019;SDS011;20895;51.034;3.742;2023-03-17T00:53:12;3.58;;;1.92;;
34019;SDS011;20895;51.034;3.742;2023-03-17T00:55:38;6.75;;;2.03;;
34019;SDS011;20895;51.034;3.742;2023-03-17T00:58:14;3.40;;;2.03;;
34019;SDS011;20895;51.034;3.742;2023-03-17T01:00:42;2.88;;;1.80;;
34019;SDS011;20895;51.034;3.742;2023-03-17T01:03:09;4.53;;;2.08;;
34019;SDS011;20895;51.034;3.742;2023-03-17T01:05:35;3.47;;;1.67;;
34019;SDS011;20895;51.034;3.742;2023-03-17T01:08:02;5.18;;;1.90;;
34019;SDS011;20895;51.034;3.742;2023-03-17T01:10:27;3.30;;;1.90;;
34019;SDS011;20895;51.034;3.742;2023-03-17T01:12:54;3.58;;;1.98;;
34019;SDS011;20895;51.034;3.742;2023-03-17T01:15:19;4.82;;;1.67;;
34019;SDS011;20895;51.034;3.742;2023-03-17T01:17:45;3.63;;;1.83;;
34019;SDS011;20895;51.034;3.742;2023-03-17T01:20:14;3.38;;;1.90;;
34019;SDS011;20895;51.034;3.742;2023-03-17T01:22:40;3.72;;;2.05;;
34019;SDS011;20895;51.034;3.742;2023-03-17T01:25:06;6.18;;;2.08;;
34019;SDS011;20895;51.034;3.742;2023-03-17T01:27:34;2.22;;;1.77;;
34019;SDS011;20895;51.034;3.742;2023-03-17T01:30:00;5.18;;;2.03;;
34019;SDS011;20895;51.034;3.742;2023-03-17T01:32:26;4.68;;;1.98;;
34019;SDS011;20895;51.034;3.742;2023-03-17T01:34:52;3.60;;;2.17;;
34019;SDS011;20895;51.034;3.742;2023-03-17T01:37:17;3.95;;;2.10;;
34019;SDS011;20895;51.034;3.742;2023-03-17T01:39:42;5.22;;;2.60;;
34019;SDS011;20895;51.034;3.742;2023-03-17T01:42:08;4.25;;;2.10;;
34019;SDS011;20895;51.034;3.742;2023-03-17T01:44:33;3.72;;;2.20;;
34019;SDS011;20895;51.034;3.742;2023-03-17T01:46:59;4.00;;;2.28;;
34019;SDS011;20895;51.034;3.742;2023-03-17T01:49:31;3.40;;;2.22;;
34019;SDS011;20895;51.034;3.742;2023-03-17T01:57:08;3.45;;;1.85;;
34019;SDS011;20895;51.034;3.742;2023-03-17T01:59:35;5.43;;;2.50;;
34019;SDS011;20895;51.034;3.742;2023-03-17T02:02:05;3.08;;;1.90;;
34019;SDS011;20895;51.034;3.742;2023-03-17T02:04:32;5.32;;;2.60;;
34019;SDS011;20895;51.034;3.742;2023-03-17T02:06:58;3.05;;;2.05;;
34019;SDS011;20895;51.034;3.742;2023-03-17T02:09:23;3.83;;;2.33;;
34019;SDS011;20895;51.034;3.742;2023-03-17T02:11:49;3.65;;;2.10;;
34019;SDS011;20895;51.034;3.742;2023-03-17T02:14:14;4.93;;;2.28;;
34019;SDS011;20895;51.034;3.742;2023-03-17T02:16:40;4.55;;;1.80;;
34019;SDS011;20895;51.034;3.742;2023-03-17T02:19:05;3.15;;;2.10;;
34019;SDS011;20895;51.034;3.742;2023-03-17T02:23:56;5.85;;;2.55;;
34019;SDS011;20895;51.034;3.742;2023-03-17T02:26:24;5.03;;;2.35;;
34019;SDS011;20895;51.034;3.742;2023-03-17T02:28:50;4.15;;;2.05;;
34019;SDS011;20895;51.034;3.742;2023-03-17T02:31:15;3.38;;;1.98;;
34019;SDS011;20895;51.034;3.742;2023-03-17T02:33:41;5.55;;;2.78;;
34019;SDS011;20895;51.034;3.742;2023-03-17T02:36:07;3.85;;;2.13;;
34019;SDS011;20895;51.034;3.742;2023-03-17T02:38:33;6.03;;;3.15;;
34019;SDS011;20895;51.034;3.742;2023-03-17T02:40:58;5.43;;;2.28;;
34019;SDS011;20895;51.034;3.742;2023-03-17T02:43:23;4.05;;;2.10;;
34019;SDS011;20895;51.034;3.742;2023-03-17T02:45:49;3.22;;;2.10;;
34019;SDS011;20895;51.034;3.742;2023-03-17T02:48:14;4.18;;;1.80;;
34019;SDS011;20895;51.034;3.742;2023-03-17T02:50:39;4.43;;;2.25;;
34019;SDS011;20895;51.034;3.742;2023-03-17T02:53:05;3.40;;;2.20;;
34019;SDS011;20895;51.034;3.742;2023-03-17T02:55:31;3.28;;;2.03;;
34019;SDS011;20895;51.034;3.742;2023-03-17T02:57:56;3.88;;;2.08;;
34019;SDS011;20895;51.034;3.742;2023-03-17T03:00:22;4.82;;;2.10;;
34019;SDS011;20895;51.034;3.742;2023-03-17T03:02:48;5.80;;;2.40;;
34019;SDS011;20895;51.034;3.742;2023-03-17T03:05:13;5.80;;;1.98;;
34019;SDS011;20895;51.034;3.742;2023-03-17T03:07:38;2.80;;;1.92;;
34019;SDS011;20895;51.034;3.742;2023-03-17T03:10:04;3.78;;;1.92;;
34019;SDS011;20895;51.034;3.742;2023-03-17T03:12:29;3.58;;;2.17;;
34019;SDS011;20895;51.034;3.742;2023-03-17T03:14:55;4.68;;;2.55;;
34019;SDS011;20895;51.034;3.742;2023-03-17T03:17:20;3.50;;;1.95;;
34019;SDS011;20895;51.034;3.742;2023-03-17T03:19:45;4.47;;;2.45;;
34019;SDS011;20895;51.034;3.742;2023-03-17T03:22:11;4.95;;;2.50;;
34019;SDS011;20895;51.034;3.742;2023-03-17T03:24:36;11.07;;;3.03;;
34019;SDS011;20895;51.034;3.742;2023-03-17T03:27:01;3.70;;;1.95;;
34019;SDS011;20895;51.034;3.742;2023-03-17T03:29:27;4.18;;;2.35;;
34019;SDS011;20895;51.034;3.742;2023-03-17T03:31:52;4.03;;;1.95;;
34019;SDS011;20895;51.034;3.742;2023-03-17T03:34:17;3.80;;;2.17;;
34019;SDS011;20895;51.034;3.742;2023-03-17T03:36:42;4.20;;;2.10;;
34019;SDS011;20895;51.034;3.742;2023-03-17T03:39:08;6.07;;;2.03;;
34019;SDS011;20895;51.034;3.742;2023-03-17T03:41:33;7.35;;;2.50;;
34019;SDS011;20895;51.034;3.742;2023-03-17T03:43:59;4.25;;;2.28;;
34019;SDS011;20895;51.034;3.742;2023-03-17T03:46:24;5.38;;;2.45;;
34019;SDS011;20895;51.034;3.742;2023-03-17T03:48:50;3.72;;;2.20;;
34019;SDS011;20895;51.034;3.742;2023-03-17T03:51:15;5.65;;;2.53;;
34019;SDS011;20895;51.034;3.742;2023-03-17T03:53:41;6.60;;;2.67;;
34019;SDS011;20895;51.034;3.742;2023-03-17T03:56:06;5.65;;;2.47;;
34019;SDS011;20895;51.034;3.742;2023-03-17T03:58:31;3.13;;;2.00;;
34019;SDS011;20895;51.034;3.742;2023-03-17T04:00:56;6.55;;;2.65;;
34019;SDS011;20895;51.034;3.742;2023-03-17T04:03:22;4.90;;;2.65;;
34019;SDS011;20895;51.034;3.742;2023-03-17T04:05:47;3.72;;;2.10;;
34019;SDS011;20895;51.034;3.742;2023-03-17T04:08:12;5.95;;;2.83;;
34019;SDS011;20895;51.034;3.742;2023-03-17T04:10:38;4.13;;;2.40;;
34019;SDS011;20895;51.034;3.742;2023-03-17T04:13:03;5.00;;;2.55;;
34019;SDS011;20895;51.034;3.742;2023-03-17T04:15:28;4.82;;;2.40;;
34019;SDS011;20895;51.034;3.742;2023-03-17T04:17:53;6.05;;;2.17;;
34019;SDS011;20895;51.034;3.742;2023-03-17T04:20:19;7.55;;;2.92;;
34019;SDS011;20895;51.034;3.742;2023-03-17T04:22:45;3.80;;;2.05;;
34019;SDS011;20895;51.034;3.742;2023-03-17T04:25:11;4.60;;;2.53;;
34019;SDS011;20895;51.034;3.742;2023-03-17T04:27:37;4.43;;;1.98;;
34019;SDS011;20895;51.034;3.742;2023-03-17T04:30:03;6.13;;;2.13;;
34019;SDS011;20895;51.034;3.742;2023-03-17T04:32:28;4.97;;;2.47;;
34019;SDS011;20895;51.034;3.742;2023-03-17T04:34:53;3.78;;;2.10;;
34019;SDS011;20895;51.034;3.742;2023-03-17T04:37:19;5.03;;;2.85;;
34019;SDS011;20895;51.034;3.742;2023-03-17T04:39:44;4.35;;;2.60;;
34019;SDS011;20895;51.034;3.742;2023-03-17T04:42:10;5.97;;;2.75;;
34019;SDS011;20895;51.034;3.742;2023-03-17T04:44:35;7.28;;;3.00;;
34019;SDS011;20895;51.034;3.742;2023-03-17T04:47:00;5.93;;;2.75;;
34019;SDS011;20895;51.034;3.742;2023-03-17T04:49:26;5.75;;;2.53;;
34019;SDS011;20895;51.034;3.742;2023-03-17T04:51:52;4.53;;;2.65;;
34019;SDS011;20895;51.034;3.742;2023-03-17T04:54:17;5.95;;;2.42;;
34019;SDS011;20895;51.034;3.742;2023-03-17T04:56:42;3.67;;;2.38;;
34019;SDS011;20895;51.034;3.742;2023-03-17T04:59:08;5.05;;;2.92;;
34019;SDS011;20895;51.034;3.742;2023-03-17T05:01:33;5.93;;;2.60;;
34019;SDS011;20895;51.034;3.742;2023-03-17T05:03:59;3.88;;;2.38;;
34019;SDS011;20895;51.034;3.742;2023-03-17T05:06:24;4.55;;;2.42;;
34019;SDS011;20895;51.034;3.742;2023-03-17T05:08:49;3.30;;;1.85;;
34019;SDS011;20895;51.034;3.742;2023-03-17T05:11:15;4.38;;;2.38;;
34019;SDS011;20895;51.034;3.742;2023-03-17T05:13:40;5.30;;;2.22;;
34019;SDS011;20895;51.034;3.742;2023-03-17T05:16:06;4.07;;;2.55;;
34019;SDS011;20895;51.034;3.742;2023-03-17T05:18:32;5.55;;;2.22;;
34019;SDS011;20895;51.034;3.742;2023-03-17T05:20:57;3.80;;;2.00;;
34019;SDS011;20895;51.034;3.742;2023-03-17T05:23:22;5.32;;;2.72;;
34019;SDS011;20895;51.034;3.742;2023-03-17T05:25:48;3.55;;;2.50;;
34019;SDS011;20895;51.034;3.742;2023-03-17T05:28:13;6.68;;;3.30;;
34019;SDS011;20895;51.034;3.742;2023-03-17T05:30:38;4.53;;;2.50;;
34019;SDS011;20895;51.034;3.742;2023-03-17T05:33:04;8.50;;;4.65;;
34019;SDS011;20895;51.034;3.742;2023-03-17T05:35:30;7.07;;;3.20;;
34019;SDS011;20895;51.034;3.742;2023-03-17T05:37:55;4.18;;;2.42;;
34019;SDS011;20895;51.034;3.742;2023-03-17T05:40:21;5.00;;;2.50;;
34019;SDS011;20895;51.034;3.742;2023-03-17T05:42:47;3.63;;;2.35;;
34019;SDS011;20895;51.034;3.742;2023-03-17T05:45:13;7.68;;;2.30;;
34019;SDS011;20895;51.034;3.742;2023-03-17T05:47:38;5.55;;;2.55;;
34019;SDS011;20895;51.034;3.742;2023-03-17T05:50:04;4.72;;;2.20;;
34019;SDS011;20895;51.034;3.742;2023-03-17T05:52:29;5.85;;;2.40;;
34019;SDS011;20895;51.034;3.742;2023-03-17T05:54:55;4.00;;;2.13;;
34019;SDS011;20895;51.034;3.742;2023-03-17T05:57:21;5.05;;;2.00;;
34019;SDS011;20895;51.034;3.742;2023-03-17T05:59:47;5.28;;;2.55;;
34019;SDS011;20895;51.034;3.742;2023-03-17T06:02:12;5.78;;;2.90;;
34019;SDS011;20895;51.034;3.742;2023-03-17T06:04:38;6.78;;;2.78;;
34019;SDS011;20895;51.034;3.742;2023-03-17T06:07:04;5.07;;;2.63;;
34019;SDS011;20895;51.034;3.742;2023-03-17T06:09:30;4.15;;;2.20;;
34019;SDS011;20895;51.034;3.742;2023-03-17T06:11:55;4.57;;;2.45;;
34019;SDS011;20895;51.034;3.742;2023-03-17T06:14:21;8.88;;;2.83;;
34019;SDS011;20895;51.034;3.742;2023-03-17T06:16:46;7.10;;;2.65;;
34019;SDS011;20895;51.034;3.742;2023-03-17T06:19:12;8.48;;;3.08;;
34019;SDS011;20895;51.034;3.742;2023-03-17T06:21:37;4.53;;;2.30;;
34019;SDS011;20895;51.034;3.742;2023-03-17T06:24:03;6.90;;;3.10;;
34019;SDS011;20895;51.034;3.742;2023-03-17T06:26:28;4.18;;;2.60;;
34019;SDS011;20895;51.034;3.742;2023-03-17T06:28:54;4.88;;;2.60;;
34019;SDS011;20895;51.034;3.742;2023-03-17T06:31:19;5.82;;;2.65;;
34019;SDS011;20895;51.034;3.742;2023-03-17T06:33:44;9.38;;;4.22;;
34019;SDS011;20895;51.034;3.742;2023-03-17T06:36:09;6.18;;;2.55;;
34019;SDS011;20895;51.034;3.742;2023-03-17T06:38:35;5.15;;;2.25;;
34019;SDS011;20895;51.034;3.742;2023-03-17T06:41:01;5.30;;;2.35;;
34019;SDS011;20895;51.034;3.742;2023-03-17T06:43:27;5.50;;;2.42;;
34019;SDS011;20895;51.034;3.742;2023-03-17T06:45:52;10.40;;;3.20;;
34019;SDS011;20895;51.034;3.742;2023-03-17T06:48:18;7.60;;;2.47;;
34019;SDS011;20895;51.034;3.742;2023-03-17T06:50:43;4.97;;;2.72;;
34019;SDS011;20895;51.034;3.742;2023-03-17T06:53:08;7.57;;;4.18;;
34019;SDS011;20895;51.034;3.742;2023-03-17T06:55:34;8.45;;;3.10;;
34019;SDS011;20895;51.034;3.742;2023-03-17T06:57:59;43.33;;;5.60;;
34019;SDS011;20895;51.034;3.742;2023-03-17T07:00:26;5.38;;;3.50;;
34019;SDS011;20895;51.034;3.742;2023-03-17T07:02:52;5.57;;;2.80;;
34019;SDS011;20895;51.034;3.742;2023-03-17T07:05:17;7.78;;;3.13;;
34019;SDS011;20895;51.034;3.742;2023-03-17T07:07:43;11.48;;;3.75;;
34019;SDS011;20895;51.034;3.742;2023-03-17T07:10:08;6.78;;;3.78;;
34019;SDS011;20895;51.034;3.742;2023-03-17T07:12:35;7.55;;;4.22;;
34019;SDS011;20895;51.034;3.742;2023-03-17T07:15:00;11.25;;;3.22;;
34019;SDS011;20895;51.034;3.742;2023-03-17T07:17:26;10.15;;;3.63;;
34019;SDS011;20895;51.034;3.742;2023-03-17T07:19:51;7.43;;;3.35;;
34019;SDS011;20895;51.034;3.742;2023-03-17T07:22:16;8.68;;;3.28;;
34019;SDS011;20895;51.034;3.742;2023-03-17T07:24:42;10.40;;;2.90;;
34019;SDS011;20895;51.034;3.742;2023-03-17T07:27:08;11.90;;;2.90;;
34019;SDS011;20895;51.034;3.742;2023-03-17T07:29:33;10.20;;;3.05;;
34019;SDS011;20895;51.034;3.742;2023-03-17T07:31:58;6.32;;;2.85;;
34019;SDS011;20895;51.034;3.742;2023-03-17T07:34:24;7.25;;;3.05;;
34019;SDS011;20895;51.034;3.742;2023-03-17T07:36:49;6.30;;;3.17;;
34019;SDS011;20895;51.034;3.742;2023-03-17T07:39:15;8.13;;;3.30;;
34019;SDS011;20895;51.034;3.742;2023-03-17T07:41:40;3.65;;;2.63;;
34019;SDS011;20895;51.034;3.742;2023-03-17T07:44:06;9.50;;;3.05;;
34019;SDS011;20895;51.034;3.742;2023-03-17T07:46:33;7.40;;;3.08;;
34019;SDS011;20895;51.034;3.742;2023-03-17T07:48:58;8.13;;;3.03;;
34019;SDS011;20895;51.034;3.742;2023-03-17T07:51:24;7.13;;;4.22;;
34019;SDS011;20895;51.034;3.742;2023-03-17T07:53:51;5.15;;;2.80;;
34019;SDS011;20895;51.034;3.742;2023-03-17T07:56:17;9.32;;;2.85;;
34019;SDS011;20895;51.034;3.742;2023-03-17T07:58:43;5.65;;;3.03;;
34019;SDS011;20895;51.034;3.742;2023-03-17T08:01:08;5.45;;;2.83;;
34019;SDS011;20895;51.034;3.742;2023-03-17T08:03:34;7.70;;;2.70;;
34019;SDS011;20895;51.034;3.742;2023-03-17T08:06:00;6.60;;;3.38;;
34019;SDS011;20895;51.034;3.742;2023-03-17T08:08:27;5.20;;;3.35;;
34019;SDS011;20895;51.034;3.742;2023-03-17T08:10:56;5.20;;;2.58;;
34019;SDS011;20895;51.034;3.742;2023-03-17T08:13:22;7.75;;;2.67;;
34019;SDS011;20895;51.034;3.742;2023-03-17T08:15:49;5.75;;;2.60;;
34019;SDS011;20895;51.034;3.742;2023-03-17T08:18:15;5.18;;;2.28;;
34019;SDS011;20895;51.034;3.742;2023-03-17T08:20:42;5.72;;;2.50;;
34019;SDS011;20895;51.034;3.742;2023-03-17T08:23:07;4.72;;;2.38;;
34019;SDS011;20895;51.034;3.742;2023-03-17T08:25:32;8.75;;;2.63;;
34019;SDS011;20895;51.034;3.742;2023-03-17T08:27:57;6.80;;;2.88;;
34019;SDS011;20895;51.034;3.742;2023-03-17T08:30:23;7.00;;;2.88;;
34019;SDS011;20895;51.034;3.742;2023-03-17T08:32:48;4.65;;;2.90;;
34019;SDS011;20895;51.034;3.742;2023-03-17T08:35:14;8.20;;;2.65;;
34019;SDS011;20895;51.034;3.742;2023-03-17T08:37:41;6.70;;;3.25;;
34019;SDS011;20895;51.034;3.742;2023-03-17T08:40:06;5.78;;;3.15;;
34019;SDS011;20895;51.034;3.742;2023-03-17T08:42:34;7.93;;;3.35;;
34019;SDS011;20895;51.034;3.742;2023-03-17T08:45:01;5.88;;;3.28;;
34019;SDS011;20895;51.034;3.742;2023-03-17T08:47:28;6.55;;;3.55;;
34019;SDS011;20895;51.034;3.742;2023-03-17T08:49:53;4.10;;;2.80;;
34019;SDS011;20895;51.034;3.742;2023-03-17T08:52:20;6.07;;;3.42;;
34019;SDS011;20895;51.034;3.742;2023-03-17T08:54:45;16.00;;;4.15;;
34019;SDS011;20895;51.034;3.742;2023-03-17T08:57:11;8.60;;;4.68;;
34019;SDS011;20895;51.034;3.742;2023-03-17T08:59:36;13.95;;;4.85;;
34019;SDS011;20895;51.034;3.742;2023-03-17T09:02:01;6.82;;;4.25;;
34019;SDS011;20895;51.034;3.742;2023-03-17T09:04:27;14.77;;;4.45;;
34019;SDS011;20895;51.034;3.742;2023-03-17T09:06:52;6.03;;;4.07;;
34019;SDS011;20895;51.034;3.742;2023-03-17T09:09:18;8.27;;;3.88;;
34019;SDS011;20895;51.034;3.742;2023-03-17T09:11:44;7.47;;;3.08;;
34019;SDS011;20895;51.034;3.742;2023-03-17T09:14:09;9.60;;;4.20;;
34019;SDS011;20895;51.034;3.742;2023-03-17T09:16:35;6.68;;;3.22;;
34019;SDS011;20895;51.034;3.742;2023-03-17T09:19:01;9.13;;;3.97;;
34019;SDS011;20895;51.034;3.742;2023-03-17T09:21:27;7.80;;;3.70;;
34019;SDS011;20895;51.034;3.742;2023-03-17T09:23:53;6.63;;;3.58;;
34019;SDS011;20895;51.034;3.742;2023-03-17T09:26:18;8.15;;;3.35;;
34019;SDS011;20895;51.034;3.742;2023-03-17T09:28:44;8.95;;;3.45;;
34019;SDS011;20895;51.034;3.742;2023-03-17T09:31:10;7.45;;;3.40;;
34019;SDS011;20895;51.034;3.742;2023-03-17T09:33:36;8.15;;;3.15;;
34019;SDS011;20895;51.034;3.742;2023-03-17T09:36:02;5.65;;;3.20;;
34019;SDS011;20895;51.034;3.742;2023-03-17T09:38:27;6.10;;;2.72;;
34019;SDS011;20895;51.034;3.742;2023-03-17T09:40:58;10.10;;;3.78;;
34019;SDS011;20895;51.034;3.742;2023-03-17T09:45:49;10.15;;;3.97;;
34019;SDS011;20895;51.034;3.742;2023-03-17T09:48:17;9.95;;;3.88;;
34019;SDS011;20895;51.034;3.742;2023-03-17T09:50:52;13.35;;;4.00;;
34019;SDS011;20895;51.034;3.742;2023-03-17T09:53:22;13.90;;;4.72;;
34019;SDS011;20895;51.034;3.742;2023-03-17T09:55:50;9.38;;;3.55;;
34019;SDS011;20895;51.034;3.742;2023-03-17T09:58:18;8.52;;;3.72;;
34019;SDS011;20895;51.034;3.742;2023-03-17T10:00:44;9.75;;;4.55;;
34019;SDS011;20895;51.034;3.742;2023-03-17T10:03:10;8.05;;;4.25;;
34019;SDS011;20895;51.034;3.742;2023-03-17T10:05:36;7.93;;;3.35;;
34019;SDS011;20895;51.034;3.742;2023-03-17T10:10:48;10.85;;;4.18;;
34019;SDS011;20895;51.034;3.742;2023-03-17T10:13:19;7.28;;;3.60;;
34019;SDS011;20895;51.034;3.742;2023-03-17T10:15:54;7.00;;;3.38;;
34019;SDS011;20895;51.034;3.742;2023-03-17T10:18:23;6.72;;;3.58;;
34019;SDS011;20895;51.034;3.742;2023-03-17T10:20:51;9.63;;;3.00;;
34019;SDS011;20895;51.034;3.742;2023-03-17T10:23:19;7.15;;;2.92;;
34019;SDS011;20895;51.034;3.742;2023-03-17T10:25:45;9.07;;;3.42;;
34019;SDS011;20895;51.034;3.742;2023-03-17T10:28:15;7.43;;;3.38;;
34019;SDS011;20895;51.034;3.742;2023-03-17T10:30:45;7.85;;;3.20;;
34019;SDS011;20895;51.034;3.742;2023-03-17T10:33:10;7.13;;;2.92;;
34019;SDS011;20895;51.034;3.742;2023-03-17T10:35:37;6.18;;;3.30;;
34019;SDS011;20895;51.034;3.742;2023-03-17T10:40:45;7.38;;;3.05;;
34019;SDS011;20895;51.034;3.742;2023-03-17T10:43:16;5.50;;;2.60;;
34019;SDS011;20895;51.034;3.742;2023-03-17T10:45:47;5.38;;;2.70;;
34019;SDS011;20895;51.034;3.742;2023-03-17T10:48:18;6.35;;;3.10;;
34019;SDS011;20895;51.034;3.742;2023-03-17T10:50:44;7.18;;;3.25;;
34019;SDS011;20895;51.034;3.742;2023-03-17T10:53:17;7.43;;;3.30;;
34019;SDS011;20895;51.034;3.742;2023-03-17T10:55:50;8.05;;;3.88;;
34019;SDS011;20895;51.034;3.742;2023-03-17T10:58:17;8.43;;;3.70;;
34019;SDS011;20895;51.034;3.742;2023-03-17T11:00:57;5.18;;;2.92;;
34019;SDS011;20895;51.034;3.742;2023-03-17T11:03:27;7.30;;;3.03;;
34019;SDS011;20895;51.034;3.742;2023-03-17T11:05:59;6.63;;;3.05;;
34019;SDS011;20895;51.034;3.742;2023-03-17T11:08:29;9.15;;;3.03;;
34019;SDS011;20895;51.034;3.742;2023-03-17T11:10:55;9.10;;;3.65;;
34019;SDS011;20895;51.034;3.742;2023-03-17T11:13:21;6.28;;;3.22;;
34019;SDS011;20895;51.034;3.742;2023-03-17T11:15:53;6.35;;;2.90;;
34019;SDS011;20895;51.034;3.742;2023-03-17T11:18:23;6.50;;;3.35;;
34019;SDS011;20895;51.034;3.742;2023-03-17T11:21:09;8.50;;;3.53;;
34019;SDS011;20895;51.034;3.742;2023-03-17T11:28:38;5.68;;;2.65;;
34019;SDS011;20895;51.034;3.742;2023-03-17T11:31:09;6.68;;;3.13;;
34019;SDS011;20895;51.034;3.742;2023-03-17T11:38:42;7.53;;;3.22;;
34019;SDS011;20895;51.034;3.742;2023-03-17T11:54:05;6.50;;;2.95;;
34019;SDS011;20895;51.034;3.742;2023-03-17T11:56:41;6.82;;;3.05;;
34019;SDS011;20895;51.034;3.742;2023-03-17T11:59:22;5.45;;;2.72;;
34019;SDS011;20895;51.034;3.742;2023-03-17T12:04:33;5.20;;;3.40;;
34019;SDS011;20895;51.034;3.742;2023-03-17T12:07:01;6.32;;;3.00;;
34019;SDS011;20895;51.034;3.742;2023-03-17T12:09:33;8.10;;;3.20;;
34019;SDS011;20895;51.034;3.742;2023-03-17T12:12:00;4.40;;;2.72;;
34019;SDS011;20895;51.034;3.742;2023-03-17T12:14:32;7.10;;;3.67;;
34019;SDS011;20895;51.034;3.742;2023-03-17T12:17:00;6.03;;;3.33;;
34019;SDS011;20895;51.034;3.742;2023-03-17T12:19:38;10.05;;;4.32;;
34019;SDS011;20895;51.034;3.742;2023-03-17T12:22:28;5.78;;;2.63;;
34019;SDS011;20895;51.034;3.742;2023-03-17T12:24:56;5.28;;;2.95;;
34019;SDS011;20895;51.034;3.742;2023-03-17T12:27:32;7.95;;;3.58;;
34019;SDS011;20895;51.034;3.742;2023-03-17T12:30:04;8.15;;;3.45;;
34019;SDS011;20895;51.034;3.742;2023-03-17T12:32:38;7.13;;;3.08;;
34019;SDS011;20895;51.034;3.742;2023-03-17T12:35:21;8.10;;;2.83;;
34019;SDS011;20895;51.034;3.742;2023-03-17T12:37:50;6.03;;;3.08;;
34019;SDS011;20895;51.034;3.742;2023-03-17T12:40:16;8.38;;;3.30;;
34019;SDS011;20895;51.034;3.742;2023-03-17T12:42:57;12.93;;;5.47;;
34019;SDS011;20895;51.034;3.742;2023-03-17T12:45:38;5.70;;;3.15;;
34019;SDS011;20895;51.034;3.742;2023-03-17T12:48:16;9.38;;;2.90;;
34019;SDS011;20895;51.034;3.742;2023-03-17T12:50:45;5.90;;;3.28;;
34019;SDS011;20895;51.034;3.742;2023-03-17T12:53:23;7.63;;;3.03;;
34019;SDS011;20895;51.034;3.742;2023-03-17T12:55:51;6.35;;;3.15;;
34019;SDS011;20895;51.034;3.742;2023-03-17T13:00:49;13.10;;;3.83;;
34019;SDS011;20895;51.034;3.742;2023-03-17T13:03:23;6.78;;;3.42;;
34019;SDS011;20895;51.034;3.742;2023-03-17T13:05:51;5.68;;;2.33;;
34019;SDS011;20895;51.034;3.742;2023-03-17T13:08:33;6.82;;;2.97;;
34019;SDS011;20895;51.034;3.742;2023-03-17T13:19:05;4.80;;;2.35;;
34019;SDS011;20895;51.034;3.742;2023-03-17T13:21:31;4.80;;;2.85;;
34019;SDS011;20895;51.034;3.742;2023-03-17T13:26:56;5.65;;;2.40;;
34019;SDS011;20895;51.034;3.742;2023-03-17T13:31:49;4.43;;;1.92;;
34019;SDS011;20895;51.034;3.742;2023-03-17T13:34:15;6.45;;;2.70;;
34019;SDS011;20895;51.034;3.742;2023-03-17T13:39:36;7.47;;;2.42;;
34019;SDS011;20895;51.034;3.742;2023-03-17T13:42:30;7.60;;;2.85;;
34019;SDS011;20895;51.034;3.742;2023-03-17T13:49:56;4.30;;;2.22;;
34019;SDS011;20895;51.034;3.742;2023-03-17T13:52:29;3.90;;;1.92;;
34019;SDS011;20895;51.034;3.742;2023-03-17T13:55:02;5.70;;;2.17;;
34019;SDS011;20895;51.034;3.742;2023-03-17T13:57:38;5.15;;;2.22;;
34019;SDS011;20895;51.034;3.742;2023-03-17T14:00:22;9.30;;;2.92;;
34019;SDS011;20895;51.034;3.742;2023-03-17T14:02:51;6.05;;;2.38;;
34019;SDS011;20895;51.034;3.742;2023-03-17T14:07:58;5.40;;;2.42;;
34019;SDS011;20895;51.034;3.742;2023-03-17T14:10:25;4.68;;;1.85;;
34019;SDS011;20895;51.034;3.742;2023-03-17T14:12:55;7.55;;;2.03;;
34019;SDS011;20895;51.034;3.742;2023-03-17T14:15:26;3.75;;;1.95;;
34019;SDS011;20895;51.034;3.742;2023-03-17T14:17:55;4.40;;;2.17;;
34019;SDS011;20895;51.034;3.742;2023-03-17T14:20:22;6.78;;;2.47;;
34019;SDS011;20895;51.034;3.742;2023-03-17T14:23:09;7.25;;;3.17;;
34019;SDS011;20895;51.034;3.742;2023-03-17T14:25:35;5.47;;;2.10;;
34019;SDS011;20895;51.034;3.742;2023-03-17T14:28:02;5.50;;;2.85;;
34019;SDS011;20895;51.034;3.742;2023-03-17T14:30:30;6.35;;;2.17;;
34019;SDS011;20895;51.034;3.742;2023-03-17T14:35:27;8.93;;;4.28;;
34019;SDS011;20895;51.034;3.742;2023-03-17T14:37:53;5.40;;;2.17;;
34019;SDS011;20895;51.034;3.742;2023-03-17T14:40:19;4.90;;;3.03;;
34019;SDS011;20895;51.034;3.742;2023-03-17T14:42:45;4.32;;;3.25;;
34019;SDS011;20895;51.034;3.742;2023-03-17T14:48:07;7.78;;;2.17;;
34019;SDS011;20895;51.034;3.742;2023-03-17T14:50:33;6.68;;;2.40;;
34019;SDS011;20895;51.034;3.742;2023-03-17T14:52:58;4.82;;;2.42;;
34019;SDS011;20895;51.034;3.742;2023-03-17T14:55:28;9.50;;;3.80;;
34019;SDS011;20895;51.034;3.742;2023-03-17T14:57:56;7.75;;;2.35;;
34019;SDS011;20895;51.034;3.742;2023-03-17T15:02:56;9.80;;;3.42;;
34019;SDS011;20895;51.034;3.742;2023-03-17T15:05:38;7.10;;;3.25;;
34019;SDS011;20895;51.034;3.742;2023-03-17T15:10:48;5.18;;;2.90;;
34019;SDS011;20895;51.034;3.742;2023-03-17T15:13:13;8.88;;;2.67;;
34019;SDS011;20895;51.034;3.742;2023-03-17T15:15:39;6.10;;;3.65;;
34019;SDS011;20895;51.034;3.742;2023-03-17T15:18:14;6.25;;;3.33;;
34019;SDS011;20895;51.034;3.742;2023-03-17T15:20:43;8.07;;;3.33;;
34019;SDS011;20895;51.034;3.742;2023-03-17T15:23:16;6.82;;;3.33;;
34019;SDS011;20895;51.034;3.742;2023-03-17T15:28:14;8.15;;;3.92;;
34019;SDS011;20895;51.034;3.742;2023-03-17T15:30:40;6.95;;;3.03;;
34019;SDS011;20895;51.034;3.742;2023-03-17T15:33:17;7.53;;;3.58;;
34019;SDS011;20895;51.034;3.742;2023-03-17T15:35:43;7.47;;;4.03;;
34019;SDS011;20895;51.034;3.742;2023-03-17T15:38:09;9.60;;;3.60;;
34019;SDS011;20895;51.034;3.742;2023-03-17T15:40:35;7.85;;;3.83;;
34019;SDS011;20895;51.034;3.742;2023-03-17T15:43:00;7.03;;;3.25;;
34019;SDS011;20895;51.034;3.742;2023-03-17T15:45:25;5.88;;;2.85;;
34019;SDS011;20895;51.034;3.742;2023-03-17T15:47:51;7.93;;;3.50;;
34019;SDS011;20895;51.034;3.742;2023-03-17T15:50:21;4.70;;;3.15;;
34019;SDS011;20895;51.034;3.742;2023-03-17T15:52:48;7.22;;;3.45;;
34019;SDS011;20895;51.034;3.742;2023-03-17T15:55:20;6.90;;;3.22;;
34019;SDS011;20895;51.034;3.742;2023-03-17T15:57:46;6.00;;;3.55;;
34019;SDS011;20895;51.034;3.742;2023-03-17T16:00:15;6.53;;;3.45;;
34019;SDS011;20895;51.034;3.742;2023-03-17T16:02:41;7.95;;;3.75;;
34019;SDS011;20895;51.034;3.742;2023-03-17T16:05:13;5.80;;;3.40;;
34019;SDS011;20895;51.034;3.742;2023-03-17T16:07:39;8.70;;;4.03;;
34019;SDS011;20895;51.034;3.742;2023-03-17T16:10:15;6.50;;;3.35;;